MDT,Max TemperatureF,Mean TemperatureF,Min TemperatureF,Max Dew PointF,MeanDew PointF,Min DewpointF,Max Humidity, Mean Humidity, Min Humidity, Max Sea Level PressureIn, Mean Sea Level PressureIn, Min Sea Level PressureIn, Max VisibilityMiles, Mean VisibilityMiles, Min VisibilityMiles, Max Wind SpeedMPH, Mean Wind SpeedMPH, Max Gust SpeedMPH,PrecipitationIn, CloudCover, Events, WindDirDegrees
2012-10-1,66,56,45,45,39,31,77,54,31,30.30,30.16,30.05,10,10,10,24,11,35,T,2,,1
2012-10-2,83,65,46,38,32,24,61,37,12,30.08,29.85,29.71,10,10,10,20,10,24,0.00,0,,234
2012-10-3,86,61,35,34,29,19,59,34,9,30.21,29.84,29.65,10,10,8,43,17,53,0.00,1,,298
2012-10-4,51,40,28,26,23,21,78,54,30,30.39,30.31,30.21,10,10,10,24,13,29,0.00,1,,19
2012-10-5,34,32,30,31,29,23,100,82,64,30.41,30.30,30.20,10,4,0,25,14,30,0.01,7,Fog-Rain-Snow,110
2012-10-6,32,29,25,31,28,22,100,93,85,30.42,30.31,30.23,10,4,0,22,12,29,0.22,7,Fog-Rain-Snow,97
2012-10-7,52,38,23,30,23,19,92,60,28,30.35,30.19,30.04,10,10,8,17,8,21,0.00,0,,246
2012-10-8,72,54,36,25,20,10,59,34,9,30.03,29.88,29.75,10,10,10,18,12,22,0.00,0,,239
2012-10-9,49,40,31,37,33,21,100,66,31,30.26,30.07,29.73,10,10,7,20,11,24,0.00,4,,5
2012-10-10,68,51,34,37,34,30,89,61,32,30.24,30.07,29.91,10,10,10,22,10,26,0.00,0,,189
2012-10-11,58,46,34,38,34,28,75,58,40,30.29,30.07,29.87,10,10,6,21,13,25,0.00,0,,33
2012-10-12,68,49,30,41,33,25,92,62,32,30.26,30.02,29.78,10,10,10,26,15,33,0.00,0,,166
2012-10-13,60,51,42,49,42,37,89,68,47,30.02,29.82,29.74,10,10,6,30,16,33,0.14,5,Rain,299
2012-10-14,69,54,39,41,36,33,77,53,29,30.19,30.12,30.05,10,10,10,22,11,30,0.00,1,,285
2012-10-15,77,61,45,35,30,23,65,40,14,30.05,29.89,29.76,10,10,9,21,11,26,0.00,0,,238
2012-10-16,76,60,44,38,31,26,60,38,16,29.80,29.60,29.42,10,10,10,40,13,58,0.01,2,Rain,258
2012-10-17,56,43,29,38,23,5,92,53,14,30.01,29.80,29.52,10,10,10,36,21,49,0.01,2,Rain,335
2012-10-18,56,43,29,20,14,8,63,39,15,30.12,30.05,29.99,10,10,10,45,21,54,0.00,0,,337
2012-10-19,72,52,31,21,17,13,47,30,12,30.06,29.91,29.75,10,10,10,16,10,22,0.00,0,,258
2012-10-20,75,61,46,23,20,16,34,23,11,29.76,29.66,29.57,10,10,10,18,10,26,0.00,0,,220
2012-10-21,67,53,39,36,30,19,79,53,26,29.88,29.73,29.55,10,10,10,21,14,24,0.00,0,,13
2012-10-22,64,49,33,44,39,33,100,73,46,29.96,29.84,29.72,10,7,0,22,8,25,0.00,1,Fog,92
2012-10-23,79,58,37,40,32,23,92,52,12,29.75,29.64,29.57,10,10,4,26,9,32,0.00,0,,273
2012-10-24,52,40,28,39,35,27,92,73,54,30.03,29.85,29.73,10,8,0,33,15,40,0.21,8,Fog-Rain-Snow,34
2012-10-25,33,27,21,27,24,20,100,86,72,30.42,30.21,30.00,2,1,1,22,14,26,T,4,Snow,339
2012-10-26,33,29,25,25,24,21,100,85,69,30.57,30.41,30.29,,,,13,7,16,0.02,6,Snow,146
2012-10-27,46,37,27,29,26,23,92,67,42,30.26,30.19,30.11,,,,16,8,21,0.00,5,,219
2012-10-28,60,48,36,33,27,22,70,49,27,30.14,30.06,29.96,,,,22,10,25,0.00,4,,210
2012-10-29,70,54,37,37,33,29,70,47,23,30.08,30.03,29.97,10,10,10,17,11,21,0.00,1,,250
2012-10-30,70,55,40,36,33,30,79,51,23,30.10,30.03,29.97,10,10,10,18,11,23,0.00,0,,286
2012-10-31,72,57,41,34,31,26,70,45,19,30.11,30.05,29.99,10,10,10,21,11,26,0.00,0,,277